createdAt,value
2018-10-18T00:02:09.978Z,33.00
2018-10-18T00:04:41.098Z,29.20
2018-10-18T00:07:15.540Z,25.92
2018-10-18T00:09:46.862Z,32.23
2018-10-18T00:12:23.769Z,45.45
2018-10-18T00:14:54.094Z,33.58
2018-10-18T00:17:29.691Z,43.45
2018-10-18T00:20:00.578Z,40.45
2018-10-18T00:22:30.273Z,33.33
2018-10-18T00:25:00.340Z,33.53
2018-10-18T00:27:29.975Z,34.18
2018-10-18T00:30:00.072Z,34.33
2018-10-18T00:32:29.883Z,43.28
2018-10-18T00:34:59.820Z,31.10
2018-10-18T00:37:29.238Z,26.42
2018-10-18T00:39:59.607Z,30.62
2018-10-18T00:42:30.105Z,26.55
2018-10-18T00:45:00.947Z,30.62
2018-10-18T00:47:30.720Z,44.23
2018-10-18T00:50:01.547Z,33.92
2018-10-18T00:52:30.793Z,37.45
2018-10-18T00:55:00.581Z,39.80
2018-10-18T00:57:29.828Z,33.30
2018-10-18T01:00:00.348Z,30.43
2018-10-18T01:02:30.533Z,35.75
2018-10-18T01:05:01.599Z,30.68
2018-10-18T01:07:31.791Z,32.65
2018-10-18T01:10:01.667Z,30.72
2018-10-18T01:12:31.603Z,34.98
2018-10-18T01:15:01.272Z,30.92
2018-10-18T01:17:31.763Z,31.70
2018-10-18T01:20:01.089Z,27.73
2018-10-18T01:22:31.651Z,34.20
2018-10-18T01:25:01.027Z,30.02
2018-10-18T01:27:31.755Z,37.60
2018-10-18T01:30:02.043Z,32.00
2018-10-18T01:32:31.795Z,39.65
2018-10-18T01:35:01.245Z,29.12
2018-10-18T01:37:30.815Z,30.57
2018-10-18T01:40:00.041Z,33.13
2018-10-18T01:42:29.415Z,32.77
2018-10-18T01:44:58.794Z,37.13
2018-10-18T01:47:29.667Z,31.50
2018-10-18T01:49:59.401Z,34.58
2018-10-18T01:52:28.651Z,31.12
2018-10-18T01:54:58.943Z,32.70
2018-10-18T01:57:29.936Z,32.33
2018-10-18T02:00:00.635Z,34.90
2018-10-18T02:02:36.759Z,37.75
2018-10-18T02:05:06.985Z,39.35
2018-10-18T02:07:39.433Z,34.43
2018-10-18T02:10:10.381Z,42.78
2018-10-18T02:12:39.745Z,41.25
2018-10-18T02:15:11.991Z,48.63
2018-10-18T02:17:44.013Z,36.68
2018-10-18T02:20:14.578Z,31.68
2018-10-18T02:22:44.759Z,40.88
2018-10-18T02:25:17.158Z,45.48
2018-10-18T02:27:48.353Z,41.02
2018-10-18T02:30:19.840Z,42.80
2018-10-18T02:32:49.638Z,40.65
2018-10-18T02:35:19.422Z,35.55
2018-10-18T02:37:49.393Z,46.98
2018-10-18T02:40:20.902Z,36.68
2018-10-18T02:42:50.537Z,42.50
2018-10-18T02:45:20.551Z,40.92
2018-10-18T02:47:50.655Z,50.35
2018-10-18T02:50:20.957Z,42.50
2018-10-18T02:52:50.548Z,41.77
2018-10-18T02:55:20.055Z,40.65
2018-10-18T02:57:50.079Z,38.90
2018-10-18T03:00:23.971Z,41.30
2018-10-18T03:02:54.147Z,49.00
2018-10-18T03:05:23.915Z,48.38
2018-10-18T03:07:57.447Z,40.05
2018-10-18T03:10:26.869Z,68.47
2018-10-18T03:12:57.011Z,40.08
2018-10-18T03:15:26.280Z,44.75
2018-10-18T03:17:55.565Z,42.85
2018-10-18T03:20:25.759Z,47.00
2018-10-18T03:22:55.069Z,55.35
2018-10-18T03:25:24.368Z,46.05
2018-10-18T03:27:53.667Z,43.80
2018-10-18T03:30:23.869Z,45.85
2018-10-18T03:32:54.167Z,44.18
2018-10-18T03:35:23.469Z,41.08
2018-10-18T03:37:52.795Z,45.78
2018-10-18T03:40:22.160Z,38.23
2018-10-18T03:42:52.051Z,41.75
2018-10-18T03:45:21.446Z,46.55
2018-10-18T03:47:52.017Z,53.73
2018-10-18T03:50:21.319Z,47.65
2018-10-18T03:52:51.133Z,41.60
2018-10-18T03:55:20.429Z,69.47
2018-10-18T03:57:49.790Z,45.67
2018-10-18T04:00:19.205Z,41.60
2018-10-18T04:02:48.496Z,46.05
2018-10-18T04:05:17.861Z,45.60
2018-10-18T04:07:47.163Z,48.20
2018-10-18T04:10:17.693Z,39.75
2018-10-18T04:12:47.098Z,35.43
2018-10-18T04:15:17.445Z,43.02
2018-10-18T04:17:46.745Z,41.98
2018-10-18T04:20:16.161Z,39.67
2018-10-18T04:22:48.663Z,57.95
2018-10-18T04:25:18.923Z,48.42
2018-10-18T04:27:48.325Z,47.88
2018-10-18T04:30:17.765Z,38.08
2018-10-18T04:32:46.920Z,50.17
2018-10-18T04:35:16.243Z,45.33
2018-10-18T04:37:45.600Z,63.92
2018-10-18T04:40:14.877Z,53.15
2018-10-18T04:42:44.819Z,46.85
2018-10-18T04:45:14.153Z,43.73
2018-10-18T04:47:43.525Z,39.90
2018-10-18T04:50:13.443Z,42.85
2018-10-18T04:52:44.119Z,42.83
2018-10-18T04:55:13.999Z,44.25
2018-10-18T04:57:43.755Z,36.75
2018-10-18T05:00:13.571Z,34.50
2018-10-18T05:02:43.443Z,41.05
2018-10-18T05:05:24.369Z,78.90
2018-10-18T05:07:54.239Z,45.98
2018-10-18T05:10:28.603Z,57.20
2018-10-18T05:12:59.928Z,55.08
2018-10-18T05:15:29.655Z,36.48
2018-10-18T05:18:01.777Z,37.25
2018-10-18T05:20:32.758Z,45.85
2018-10-18T05:23:04.346Z,47.08
2018-10-18T05:25:34.086Z,50.48
2018-10-18T05:28:08.365Z,58.75
2018-10-18T05:30:38.139Z,43.38
2018-10-18T05:33:08.447Z,49.45
2018-10-18T05:35:38.514Z,61.50
2018-10-18T05:38:09.288Z,53.38
2018-10-18T05:40:39.296Z,46.00
2018-10-18T05:43:09.178Z,47.33
2018-10-18T05:45:39.527Z,57.27
2018-10-18T05:48:09.135Z,50.00
2018-10-18T05:50:40.095Z,47.48
2018-10-18T05:53:09.550Z,61.48
2018-10-18T05:55:43.870Z,73.12
2018-10-18T05:58:15.725Z,45.25
2018-10-18T06:00:48.949Z,39.67
2018-10-18T06:03:18.566Z,36.80
2018-10-18T06:05:48.484Z,35.65
2018-10-18T06:08:18.149Z,44.90
2018-10-18T06:10:59.385Z,56.33
2018-10-18T06:13:33.153Z,52.80
2018-10-18T06:16:07.503Z,49.83
2018-10-18T06:18:41.205Z,39.70
2018-10-18T06:21:12.354Z,51.73
2018-10-18T06:23:44.749Z,53.85
2018-10-18T06:26:17.899Z,47.85
2018-10-18T06:28:47.723Z,48.80
2018-10-18T06:31:17.027Z,50.73
2018-10-18T06:33:47.279Z,42.60
2018-10-18T06:36:19.059Z,47.50
2018-10-18T06:38:49.455Z,44.98
2018-10-18T06:41:20.180Z,49.18
2018-10-18T06:43:49.933Z,61.93
2018-10-18T06:46:19.216Z,48.23
2018-10-18T06:48:49.166Z,43.13
2018-10-18T06:51:20.593Z,41.30
2018-10-18T06:53:50.778Z,44.07
2018-10-18T06:56:27.703Z,51.10
2018-10-18T06:58:57.125Z,54.73
2018-10-18T07:01:30.785Z,50.90
2018-10-18T07:04:00.541Z,51.93
2018-10-18T07:06:30.203Z,61.90
2018-10-18T07:10:30.807Z,42.00
2018-10-18T07:13:00.287Z,66.30
2018-10-18T07:15:30.334Z,44.37
2018-10-18T07:18:00.603Z,38.03
2018-10-18T07:20:30.262Z,38.67
2018-10-18T07:23:00.099Z,48.10
2018-10-18T07:25:29.427Z,54.80
2018-10-18T07:28:00.139Z,59.80
2018-10-18T07:30:30.023Z,41.93
2018-10-18T07:32:59.946Z,55.77
2018-10-18T07:35:29.537Z,71.10
2018-10-18T07:37:59.251Z,59.00
2018-10-18T07:40:28.476Z,55.03
2018-10-18T07:42:57.737Z,42.70
2018-10-18T07:45:27.355Z,40.37
2018-10-18T07:47:56.644Z,62.83
2018-10-18T07:50:26.123Z,56.43
2018-10-18T07:52:55.767Z,59.80
2018-10-18T07:55:26.639Z,65.07
2018-10-18T07:57:55.848Z,63.13
2018-10-18T08:00:26.906Z,60.40
2018-10-18T08:02:56.849Z,51.87
2018-10-18T08:05:26.419Z,57.67
2018-10-18T08:07:56.606Z,45.07
2018-10-18T08:10:26.070Z,58.23
2018-10-18T08:12:56.488Z,48.20
2018-10-18T08:15:26.147Z,64.50
2018-10-18T08:17:55.751Z,56.10
2018-10-18T08:20:25.623Z,45.17
2018-10-18T08:22:55.551Z,64.23
2018-10-18T08:25:28.401Z,69.53
2018-10-18T08:27:57.629Z,79.57
2018-10-18T08:30:26.935Z,66.57
2018-10-18T08:32:56.133Z,61.20
2018-10-18T08:35:25.358Z,70.50
2018-10-18T08:37:54.686Z,75.73
2018-10-18T08:40:23.861Z,76.47
2018-10-18T08:42:53.110Z,72.70
2018-10-18T09:07:44.111Z,67.60
2018-10-18T09:10:14.394Z,62.33
2018-10-18T10:53:26.323Z,56.13
2018-10-18T10:55:56.560Z,38.67
2018-10-18T10:58:26.749Z,41.53
2018-10-18T11:08:22.084Z,37.87
2018-10-18T11:10:51.355Z,34.60
2018-10-18T11:13:21.603Z,35.17
2018-10-18T11:15:51.885Z,32.33
2018-10-18T11:18:22.014Z,31.17
2018-10-18T11:20:51.683Z,32.20
2018-10-18T11:23:20.959Z,35.43
2018-10-18T11:25:50.291Z,32.60
2018-10-18T11:28:19.499Z,28.47
2018-10-18T11:30:48.745Z,36.27
2018-10-18T11:33:18.411Z,33.60
2018-10-18T11:35:47.583Z,31.10
2018-10-18T11:38:16.950Z,26.80
2018-10-18T11:40:46.797Z,29.93
2018-10-18T11:43:16.707Z,24.27
2018-10-18T11:45:45.971Z,32.10
2018-10-18T11:48:16.713Z,30.10
2018-10-18T11:50:46.093Z,39.60
2018-10-18T11:53:16.187Z,29.73
2018-10-18T11:55:47.163Z,28.03
2018-10-18T11:58:29.283Z,29.67
2018-10-18T12:01:00.110Z,35.77
2018-10-18T12:03:29.511Z,30.13
2018-10-18T12:05:59.247Z,26.97
2018-10-18T12:08:29.113Z,31.40
2018-10-18T12:10:59.763Z,24.13
2018-10-18T12:13:28.939Z,34.90
2018-10-18T12:16:00.294Z,28.20
2018-10-18T12:18:29.959Z,29.20
2018-10-18T12:20:59.881Z,27.73
2018-10-18T12:23:29.088Z,26.90
2018-10-18T12:25:58.623Z,25.63
2018-10-18T12:28:28.160Z,28.63
2018-10-18T12:30:57.347Z,31.30
2018-10-18T12:33:27.042Z,30.97
2018-10-18T12:35:56.235Z,25.43
2018-10-18T12:38:25.821Z,24.43
2018-10-18T12:40:55.128Z,44.00
2018-10-18T12:43:24.974Z,23.27
2018-10-18T12:49:40.227Z,22.53
2018-10-18T12:52:11.389Z,22.70
2018-10-18T12:54:41.175Z,26.83
2018-10-18T13:01:46.048Z,21.73
2018-10-18T13:04:15.328Z,19.67
2018-10-18T13:06:44.522Z,23.53
2018-10-18T13:09:52.647Z,21.63
2018-10-18T13:12:46.400Z,23.17
2018-10-18T13:18:30.527Z,23.20
2018-10-18T13:20:59.811Z,26.60
2018-10-18T13:23:29.658Z,26.30
2018-10-18T13:26:00.835Z,16.43
2018-10-18T13:28:30.421Z,19.67
2018-10-18T13:31:00.525Z,18.23
2018-10-18T13:33:30.130Z,18.00
2018-10-18T13:42:59.272Z,14.67
2018-10-18T13:45:28.679Z,17.33
2018-10-18T13:47:58.032Z,17.57
2018-10-18T13:50:28.734Z,18.60
2018-10-18T13:52:58.183Z,18.93
2018-10-18T13:55:27.938Z,19.13
2018-10-18T13:57:57.720Z,19.07
2018-10-18T14:00:28.791Z,16.33
2018-10-18T14:02:58.337Z,20.07
2018-10-18T14:05:28.837Z,14.83
2018-10-18T14:07:58.591Z,15.57
2018-10-18T14:10:28.579Z,18.37
2018-10-18T14:13:18.702Z,17.83
2018-10-18T14:19:02.175Z,21.17
2018-10-18T14:21:31.932Z,22.00
2018-10-18T14:24:14.658Z,19.73
2018-10-18T14:26:43.885Z,18.40
2018-10-18T14:29:13.296Z,22.80
2018-10-18T14:31:42.459Z,21.50
2018-10-18T14:34:11.644Z,20.63
2018-10-18T14:37:02.037Z,16.40
2018-10-18T14:39:31.341Z,16.93
2018-10-18T14:42:00.733Z,14.47
2018-10-18T14:44:31.715Z,22.97
2018-10-18T14:47:01.785Z,17.43
2018-10-18T14:49:31.393Z,16.47
2018-10-18T14:52:02.955Z,17.77
2018-10-18T14:54:32.287Z,22.10
2018-10-18T14:57:01.691Z,22.57
2018-10-18T14:59:31.756Z,16.93
2018-10-18T15:02:01.388Z,22.50
2018-10-18T15:04:34.348Z,16.93
2018-10-18T15:07:04.071Z,29.80
2018-10-18T15:09:35.253Z,17.70
2018-10-18T15:12:09.083Z,24.27
2018-10-18T15:14:39.469Z,22.33
2018-10-18T15:17:09.908Z,20.40
2018-10-18T15:19:39.572Z,18.80
2018-10-18T15:22:10.066Z,18.30
2018-10-18T15:24:42.326Z,16.33
2018-10-18T15:27:12.285Z,20.90
2018-10-18T15:29:41.670Z,22.17
2018-10-18T15:32:26.868Z,18.10
2018-10-18T15:34:57.322Z,17.30
2018-10-18T15:37:29.399Z,18.27
2018-10-18T15:40:00.984Z,21.43
2018-10-18T15:42:32.130Z,26.03
2018-10-18T15:45:04.101Z,17.53
2018-10-18T15:47:48.357Z,20.90
2018-10-18T15:50:17.573Z,18.67
2018-10-18T15:52:47.448Z,24.40
2018-10-18T15:55:16.687Z,17.50
2018-10-18T15:57:46.195Z,18.87
2018-10-18T16:00:15.589Z,26.13
2018-10-18T16:02:44.892Z,14.60
2018-10-18T16:05:14.292Z,19.20
2018-10-18T16:07:43.557Z,18.80
2018-10-18T16:10:12.808Z,23.00
2018-10-18T16:12:42.012Z,16.27
2018-10-18T16:15:11.974Z,15.60
2018-10-18T16:17:41.210Z,14.83
2018-10-18T16:20:10.798Z,14.77
2018-10-18T16:22:40.504Z,13.47
2018-10-18T16:25:11.081Z,17.57
2018-10-18T16:27:41.124Z,16.10
2018-10-18T16:30:10.343Z,16.83
2018-10-18T16:32:39.581Z,19.17
2018-10-18T16:35:09.902Z,13.93
2018-10-18T16:37:39.131Z,23.70
2018-10-18T16:40:08.559Z,17.67
2018-10-18T16:42:37.818Z,16.53
2018-10-18T16:45:09.616Z,14.83
2018-10-18T16:47:38.959Z,16.90
2018-10-18T16:50:08.827Z,19.23
2018-10-18T16:52:38.097Z,18.47
2018-10-18T16:55:07.705Z,13.03
2018-10-18T16:57:37.357Z,15.20
2018-10-18T17:00:08.244Z,17.20
2018-10-18T17:02:37.585Z,27.47
2018-10-18T17:05:07.005Z,17.90
2018-10-18T17:07:56.927Z,17.63
2018-10-18T17:10:26.157Z,19.67
2018-10-18T17:12:56.081Z,17.17
2018-10-18T17:15:25.286Z,16.03
2018-10-18T17:17:54.518Z,16.00
2018-10-18T17:20:24.077Z,20.17
2018-10-18T17:22:53.583Z,17.73
2018-10-18T17:25:23.654Z,16.30
2018-10-18T17:27:52.981Z,17.10
2018-10-18T17:30:22.225Z,14.57
2018-10-18T17:32:51.705Z,15.60
2018-10-18T17:35:21.183Z,15.17
2018-10-18T17:37:50.435Z,13.53
2018-10-18T17:40:19.768Z,13.70
2018-10-18T17:42:49.003Z,16.27
2018-10-18T17:45:18.394Z,14.80
2018-10-18T17:47:47.616Z,16.40
2018-10-18T17:50:16.880Z,16.43
2018-10-18T17:52:46.146Z,15.50
2018-10-18T17:55:16.878Z,16.07
2018-10-18T17:57:46.050Z,15.70
2018-10-18T18:00:15.380Z,16.17
2018-10-18T18:02:44.571Z,24.40
2018-10-18T18:05:14.029Z,20.10
2018-10-18T18:07:46.246Z,19.90
2018-10-18T18:10:17.150Z,21.87
2018-10-18T18:12:46.706Z,19.43
2018-10-18T18:15:16.051Z,17.73
2018-10-18T18:17:45.252Z,18.63
2018-10-18T18:20:14.638Z,20.17
2018-10-18T18:22:43.971Z,19.70
2018-10-18T18:25:13.561Z,22.63
2018-10-18T18:27:43.580Z,20.83
2018-10-18T18:30:15.532Z,18.60
2018-10-18T18:32:45.175Z,29.07
2018-10-18T18:35:14.822Z,23.83
2018-10-18T18:37:44.205Z,15.90
2018-10-18T18:40:13.482Z,18.70
2018-10-18T18:42:42.820Z,20.00
2018-10-18T18:45:17.960Z,31.97
2018-10-18T18:47:47.066Z,20.70
2018-10-18T18:50:16.589Z,19.17
2018-10-18T18:52:46.020Z,36.80
2018-10-18T18:55:15.291Z,26.03
2018-10-18T18:57:47.532Z,29.33
2018-10-18T19:00:18.279Z,20.30
2018-10-18T19:02:47.748Z,34.27
2018-10-18T19:05:18.380Z,25.60
2018-10-18T19:07:47.798Z,19.47
2018-10-18T19:10:18.567Z,24.73
2018-10-18T19:12:49.165Z,25.33
2018-10-18T19:15:19.062Z,18.70
2018-10-18T19:17:48.969Z,24.90
2018-10-18T19:20:19.463Z,21.90
2018-10-18T19:22:54.065Z,34.03
2018-10-18T19:25:25.540Z,32.37
2018-10-18T19:27:57.606Z,24.83
2018-10-18T19:30:27.146Z,35.17
2018-10-18T19:33:00.655Z,25.33
2018-10-18T19:35:30.277Z,22.33
2018-10-18T19:37:59.830Z,32.90
2018-10-18T19:40:30.040Z,21.60
2018-10-18T19:42:59.857Z,20.60
2018-10-18T19:45:29.964Z,24.90
2018-10-18T19:47:59.255Z,26.03
2018-10-18T19:50:29.127Z,36.60
2018-10-18T19:52:59.381Z,26.53
2018-10-18T19:55:28.868Z,26.00
2018-10-18T19:57:59.505Z,31.67
2018-10-18T20:00:29.384Z,23.17
2018-10-18T20:02:58.584Z,23.53
2018-10-18T20:05:27.776Z,31.27
2018-10-18T20:07:57.118Z,26.10
2018-10-18T20:10:26.293Z,21.33
2018-10-18T20:12:56.515Z,26.30
2018-10-18T20:15:25.824Z,27.53
2018-10-18T20:17:55.108Z,30.87
2018-10-18T20:20:24.409Z,34.63
2018-10-18T20:22:53.673Z,34.97
2018-10-18T20:25:23.013Z,22.70
2018-10-18T20:27:53.072Z,31.27
2018-10-18T20:30:22.320Z,23.37
2018-10-18T20:32:51.485Z,31.30
2018-10-18T20:35:20.714Z,34.90
2018-10-18T20:37:50.007Z,26.70
2018-10-18T20:40:19.592Z,22.83
2018-10-18T20:42:48.816Z,29.30
2018-10-18T20:45:23.414Z,39.17
2018-10-18T20:47:52.775Z,35.30
2018-10-18T20:50:22.288Z,30.50
2018-10-18T20:52:51.504Z,23.23
2018-10-18T20:55:20.727Z,33.37
2018-10-18T20:57:50.022Z,27.53
2018-10-18T21:00:19.648Z,20.73
2018-10-18T21:02:49.279Z,25.20
2018-10-18T21:05:18.553Z,47.50
2018-10-18T21:07:48.012Z,28.97
2018-10-18T21:10:17.477Z,34.47
2018-10-18T21:12:47.247Z,40.63
2018-10-18T21:15:17.697Z,28.27
2018-10-18T21:17:47.400Z,42.90
2018-10-18T21:20:16.777Z,32.70
2018-10-18T21:22:46.007Z,36.33
2018-10-18T21:25:15.278Z,48.90
2018-10-18T21:27:44.893Z,38.10
2018-10-18T21:30:14.053Z,43.47
2018-10-18T21:32:44.201Z,49.50
2018-10-18T21:35:13.432Z,35.33
2018-10-18T21:37:42.600Z,35.67
2018-10-18T21:40:11.795Z,52.60
2018-10-18T21:42:41.346Z,42.13
2018-10-18T21:45:10.625Z,41.20
2018-10-18T21:47:41.125Z,44.67
2018-10-18T21:50:10.360Z,45.07
2018-10-18T21:52:39.576Z,47.47
2018-10-18T21:55:09.594Z,47.43
2018-10-18T21:57:39.361Z,49.87
2018-10-18T22:00:13.673Z,40.97
2018-10-18T22:02:44.045Z,36.47
2018-10-18T22:05:14.146Z,41.73
2018-10-18T22:07:43.658Z,44.93
2018-10-18T22:10:13.813Z,61.00
2018-10-18T22:12:43.065Z,44.47
2018-10-18T22:15:12.452Z,45.77
2018-10-18T22:17:41.712Z,43.13
2018-10-18T22:20:11.275Z,65.37
2018-10-18T22:22:41.142Z,43.20
2018-10-18T22:25:10.443Z,46.13
2018-10-18T22:27:39.729Z,40.57
2018-10-18T22:30:10.517Z,53.07
2018-10-18T22:32:41.126Z,52.53
2018-10-18T22:35:10.485Z,45.00
2018-10-18T22:37:40.012Z,40.70
2018-10-18T22:40:10.726Z,39.43
2018-10-18T22:42:39.973Z,37.37
2018-10-18T22:45:09.316Z,40.97
2018-10-18T22:47:38.694Z,39.67
2018-10-18T22:50:07.941Z,58.60
2018-10-18T22:52:37.693Z,40.93
2018-10-18T22:55:07.014Z,42.27
2018-10-18T22:57:36.269Z,45.47
2018-10-18T23:00:07.541Z,62.27
2018-10-18T23:02:37.341Z,60.10
2018-10-18T23:05:07.805Z,46.67
2018-10-18T23:07:37.035Z,45.40
2018-10-18T23:10:06.687Z,39.40
2018-10-18T23:12:35.927Z,42.10
2018-10-18T23:15:06.705Z,42.33
2018-10-18T23:17:36.023Z,37.87
2018-10-18T23:20:06.926Z,40.33
2018-10-18T23:22:36.135Z,41.83
2018-10-18T23:25:06.137Z,41.13
2018-10-18T23:27:35.357Z,45.40
2018-10-18T23:30:05.475Z,43.73
2018-10-18T23:32:34.651Z,48.37
2018-10-18T23:35:03.960Z,47.57
2018-10-18T23:37:33.370Z,41.63
2018-10-18T23:40:02.613Z,38.73
2018-10-18T23:42:31.848Z,48.17
2018-10-18T23:45:02.140Z,36.20
2018-10-18T23:47:31.317Z,37.80
2018-10-18T23:50:00.581Z,37.87
2018-10-18T23:52:30.187Z,56.87
2018-10-18T23:54:59.804Z,61.73
2018-10-18T23:57:29.140Z,49.70
2018-10-18T23:59:58.984Z,51.73
